X  Sluiten METAR luchtvaart weer gegevens      EHLW Leeuwarden Air Base
Temperatuur
15°C Temperatuur
10°C Dauwpunt
72% Vochtigheid



Wind
13 KM/U
8 MPH
4 M/S
7 KTS



80°
Oosten
Huidig weer

Helder Helder
Luchtdruk 1025.92 (hPa) - 30.3 (inHg)
Zicht 6.2 (mijl) - 10 (km)
Vliegveld
Vliegveld code EHLW

Locatie : Leeuwarden Air Base
Afstand: 30 (km)

Metar:
EHLW 300625Z AUTO 08007KT 030V160 9999 NCD 15/10 Q1026 BLU

Tijd: 30-05-2020 08:25 CEST